Manti, Utah
Current Conditions -  °F | °C
As of 10:15 PM on Sunday 19 Oct 2014 (Local Time) from KDTA Reporting Station
Clear Clear  
Wind Chill: 52°   Ceiling: Unl
Heat Index: 52°   Visibility: 10mi
Dew Point: 33°   Wind: 3mph
Humidity: 48%   Direction: 210°SSW
Pressure: 30.06"   Gusts: NA
Location:  39.27°N, 111.64°W
Report Text: KDTA 200415Z AUTO 21003KT 10SM CLR 11/01 A3006 RMK AO1 T01130005
Loading
Personal Weather Stations






























Interactive Weather Map
Tropical Storm Tracking
New forecast layout! Learn more

10-Day Weather Forecast

Advertisements
Track Severe Weather on mobile